Relevés horaires Koksijde (Belgique)


Relevés horaires à Koksijde - Samedi 20 Mai 2023
Heure UTC1 Température [°C] Vent [km/h] Hum. [%] Pres.4 [hPa] Visi. [Km] Nébu. [octa] Préc.5 [mm] Cond.
2m. Res. Ros. Dir.2 Vit. Moy. Raf.3
23:00 13.1 12.2 11.1 N 11.1 -- 16.7 88 1019.6(-0.9/3h) 12 -- -- --
22:00 13.2 12.3 10.9 NNE 11.1 -- 18.5 86 1020.1(-0.4/3h) 16 -- -- --
21:00 13.3 12.2 10.9 NNE 13.0 -- 20.4 85 1020.5(0.1/3h) 17 -- -- --
20:00 13.5 12.9 10.6 N 9.3 -- 16.7 83 1020.6(0.2/3h) 19 -- -- --
19:00 13.8 13 10.4 N 11.1 -- 20.4 80 1020.5(-0.1/3h) 19 -- -- --
18:00 14.3 13.2 10.3 N 14.8 -- 27.8 77 1020.2(-0.3/3h) 19 -- -- --
17:00 15.1 14.1 10.0 N 16.7 -- 24.1 72 1020.3(-0.9/3h) 20 -- -- --
16:00 15.9 15.1 9.3 N 16.7 -- 25.9 65 1020.6(-1.0/3h) 18 -- -- --
15:00 16.6 15.8 9.3 N 18.5 -- 27.8 62 1020.7(-1.3/3h) 20 -- -- --
14:00 16.6 15.8 10.3 N 18.5 -- 24.1 66 1021.2(-1.0/3h) 15 -- -- --
13:00 16.4 15.5 10.5 N 18.5 -- 24.1 68 1021.6(-1.1/3h) 18 3/8 -- --
12:00 16.1 15.3 11.5 N 16.7 -- 22.2 74 1022.1(-1.0/3h) 15 -- -- --
11:00 15.7 14.8 11.3 N 16.7 -- 22.2 75 1022.2(-0.9/3h) 20 -- -- --
10:00 15.3 14.3 11.0 NNE 16.7 -- 22.2 76 1022.7(-0.6/3h) 9 -- -- --
09:00 15.1 14.2 11.0 N 14.8 -- 22.2 76 1023.1(-0.4/3h) 14 -- -- --
08:00 14.7 13.9 11.1 NNE 13.0 -- 16.7 79 1023.2(-0.3/3h) 20 -- -- --
07:00 14.1 13.4 10.6 NNE 11.1 -- 16.7 79 1023.3(-0.2/3h) 14 -- -- --
06:00 13.1 12.4 10.1 NE 9.3 -- 16.7 82 1023.5(-0.3/3h) 17 -- -- --
05:00 12.1 11.6 9.2 NE 7.4 -- 13.0 82 1023.7(-0.3/3h) 18 -- -- --
04:00 11.7 11.1 9.4 NNE 7.4 -- 9.3 86 1023.7(-0.7/3h) 17 -- -- --
03:00 10.9 10.6 9.3 NNE 5.6 -- 16.7 90 1023.8(-0.9/3h) 12 -- -- --
02:00 11.6 11.4 10.3 NNE 5.6 -- 13.0 92 1024(-1.1/3h) 10 -- -- --
01:00 12.0 11.1 10.4 N 9.3 -- 16.7 90 1024.5(-0.8/3h) 11 -- -- --
00:00 12.1 11.2 9.8 NNE 9.3 -- 18.5 86 1024.7(-0.5/3h) 14 -- -- --

1 Coordinated Universal Time. Actuellement il est 11:00 locale et 09:00 UTC.

2 Le vent souffle depuis la direction indiquée vers la direction oposée.

3 Les rafales max. sont disponible 40 min après l'heure du relevé.

4 Pour les stations d'altitude (plus de 600m) le géopotentiel du niveau le plus proche de la pression obligatoire est indiqué.

5 Les stations disposant d'un diffuseur peuvent indiquer "trace". Cela signifie que des précipitations ont touchés le sol mais que la quantité est inférieure à 0.1 mm.

Récapitulatif de la journée
Température [°C] Vent [km/h] Ensoleillement4 [h] Precipitations totale5 [mm] Pression [Hpa]
Min1 Max.2 Moy.3 Max. Min Max.
10.9 17.2 0 27.8 0 h 0 min 0 1019.6 1024.7

1 Température minimale relevée entre 18:00 UTC la veille et 18:00 UTC le jour donné.

2 Température maximale relevée entre 06:00 UTC le jour donné et 06:00 UTC le lendemain.

3 Vent moyen de la journée basé sur les relevés horaires.

4 Ensoleillement en heures relevé entre 06:00 UTC la veille et 06:00 UTC le jour donné.

5 Précipitations totales tombées entre 06:00 UTC la jour donné et 06:00 UTC le lendemain.

Graphiques horaires